Tabriz International Airport
OITT : now visible

Airfield :











YOU CAN JOIN US ON...

 
LOGIN :

Register | Disclaimer

   EN    FR    IT 

 









Legend :    VFR   Marginal VFR   IFR   Intensive IFR   Very Intensive IFR
Visi :
Ceiling :
>= 8 km
>= 3000ft
5 to 8 km
1000 to 3000 ft
1500m to 5 km
500 to 1000 ft
800 to 1500m
200 to 500 ft
< 800m
< 200 ft
Symbols :   Thunderstorms  Fog  Heavy snow  Heavy precipitations  Wind > 20 kt







- Airport Elevation : 4459 ft
- IATA code : TBZ


OITT - Tabriz International

CURRENT METAR :
  • 190030Z 00000KT 9999 FEW040 SCT090 M01/M04 Q1010 A2984

EXPIRED METARs :
  • 190000Z 00000KT 9999 FEW040 SCT090 00/M05 Q1010 A2985
  • 182330Z 00000KT 9999 FEW040 BKN090 01/M04 Q1010 A2984
  • 182300Z 00000KT 9999 FEW040 BKN090 01/M04 Q1010 A2984
  • 182230Z VRB02KT 9999 FEW040 BKN090 01/M04 Q1010 A2984

TAF TAF OITT
Valid from the 19 at 00:00 until the 20 at 06:00 UTC


182300Z 1900/2006 26008KT 8000 FEW040
TEMPO 1912/1915 30014KT FEW030CB SCT035
OIIX FIR / Asia



MET'MAP, your aeronautical weather chart ! - Copyright ORBIFLY December 2007 - Disclaimer

ORBIFLY MET'MAP TEAM :

Programming & Development : Alexandra Zaïnal
Concept & Development : Baudouin d'Aumeries
Co-Development & Prog : Marc-Olivier Méhu
Technical & hardware support : Manuel Goepfert

Contact : metmap@orbifly.com




SOURCES & CREDITS :

   NOAA       Earth
Advisory